עמוד ראשי
METAR-TAF:

METAR-TAF

שדות תעופה :

Vero Beach Municipal Airport

Vero Beach, פלורידה, ארצות הברית

קו רוחב: 27-39-20N, קו אורך: 080-25-05W, גובה: 7מטר

תצפית מזג אוויר נוכחית

הדו"ח נערך לפני 26דקות, בשעה 20:53 UTC
רוח 16קשר מכיוון מזרח עם משבים עד 24קשר
טמפרטורת 30 צלסיוס
לחות 66%
לחץ 1016 hPa
ראות: 16.1קילומטר
שמיים נקיים

METAR: KVRB 172053Z 09016G24KT 10SM CLR 30/23 A3000 RMK AO2 SLP156 T03000228 56017

זמן: 17:19 (21:19 UTC)

תחזית

הדו"ח נערך לפני 3 שעות ו 56דקות, בשעה 17:23 UTC
תחזית בתוקף מ 17 ב 18 UTC עד 18 ב 18 UTC
רוח 16קשר מכיוון מזרח עם משבים עד 25קשר
ראות: 10קילומטר
עננים פזורים בגובה 3000רגל
עננים פזורים בגובה 30000רגל
ממטרים במרחב
מ 18 ב 0000UTC
רוח 12קשר מכיוון מזרח
ראות: 10קילומטר
עננים פזורים בגובה 3500רגל
עננים פזורים בגובה 30000רגל
מ 18 ב 1400UTC
רוח 15קשר מכיוון מזרח עם משבים עד 23קשר
ראות: 10קילומטר
עננים פזורים בגובה 3000רגל
עננים פזורים בגובה 25000רגל

TAF: KVRB 171723Z 1718/1818 09016G25KT P6SM VCSH SCT030 SCT300 FM180000 08012KT P6SM SCT035 SCT300 FM181400 08015G23KT P6SM SCT030 SCT250

תצפיות ותחזיות מזג אוויר לגבי יותר מ- 4,000 שדות תעופה ברחבי העולם. דוחות METAR ו- TAF.

התחנות הזמינות מסומנות בנקודות צהובות ואדומות על גבי המפה.

העבר את העכבר לנקודה הצבעונית על מנת לראות את שם התחנה.

לאחר מכן, לחץ כדי לראות את תוכן ואת תחזיות מזג האוויר.

כדי לשנות את המפה: לחץ על הכפתורים הירוקים עם הפלוס השחור כדי להתקרב; על הכפתור הירוק עם המקף כדי להתרחק; או בחיצים הירוקים למפות סמוכות.


METAR-TAF: